createdAt,value
2024-02-10T00:01:40.645Z,9.51
2024-02-10T00:04:08.041Z,9.51
2024-02-10T00:06:37.959Z,9.52
2024-02-10T00:09:07.892Z,9.52
2024-02-10T00:11:35.531Z,9.52
2024-02-10T00:14:02.369Z,9.52
2024-02-10T00:16:30.150Z,9.54
2024-02-10T00:18:58.821Z,9.53
2024-02-10T00:21:25.753Z,9.51
2024-02-10T00:23:52.385Z,9.49
2024-02-10T00:26:22.505Z,9.49
2024-02-10T00:28:50.176Z,9.41
2024-02-10T00:31:16.959Z,9.43
2024-02-10T00:33:47.744Z,9.44
2024-02-10T00:36:14.643Z,9.45
2024-02-10T00:38:41.750Z,9.46
2024-02-10T00:41:11.047Z,9.46
2024-02-10T00:43:43.565Z,9.47
2024-02-10T00:46:11.959Z,9.49
2024-02-10T00:48:39.242Z,9.47
2024-02-10T00:51:07.102Z,9.48
2024-02-10T00:53:37.532Z,9.49
2024-02-10T00:56:04.417Z,9.50
2024-02-10T00:58:32.422Z,9.51
2024-02-10T01:00:59.048Z,9.52
2024-02-10T01:03:25.781Z,9.54
2024-02-10T01:05:52.580Z,9.55
2024-02-10T01:08:19.238Z,9.56
2024-02-10T01:10:45.896Z,9.56
2024-02-10T01:13:12.717Z,9.55
2024-02-10T01:15:44.193Z,9.54
2024-02-10T01:18:14.018Z,9.53
2024-02-10T01:20:40.785Z,9.52
2024-02-10T01:23:09.503Z,9.52
2024-02-10T01:25:37.537Z,9.51
2024-02-10T01:28:04.443Z,9.52
2024-02-10T01:30:31.146Z,9.52
2024-02-10T01:32:59.864Z,9.51
2024-02-10T01:35:28.415Z,9.52
2024-02-10T01:37:57.085Z,9.52
2024-02-10T01:40:23.824Z,9.50
2024-02-10T01:42:51.006Z,9.50
2024-02-10T01:45:19.324Z,9.50
2024-02-10T01:47:47.326Z,9.50
2024-02-10T01:50:16.104Z,9.51
2024-02-10T01:52:44.619Z,9.52
2024-02-10T01:55:12.120Z,9.51
2024-02-10T01:57:39.649Z,9.52
2024-02-10T02:00:07.938Z,9.52
2024-02-10T02:02:35.154Z,9.52
2024-02-10T02:05:03.904Z,9.52
2024-02-10T02:07:31.894Z,9.52
2024-02-10T02:10:02.177Z,9.51
2024-02-10T02:12:30.059Z,9.49
2024-02-10T02:14:58.934Z,9.48
2024-02-10T02:17:26.262Z,9.46
2024-02-10T02:19:53.585Z,9.43
2024-02-10T02:22:22.039Z,9.40
2024-02-10T02:24:49.156Z,9.35
2024-02-10T02:27:16.300Z,9.33
2024-02-10T02:29:43.420Z,9.28
2024-02-10T02:32:12.037Z,9.29
2024-02-10T02:34:39.664Z,9.29
2024-02-10T02:37:08.325Z,9.29
2024-02-10T02:39:37.331Z,9.28
2024-02-10T02:42:07.165Z,9.29
2024-02-10T02:44:34.329Z,9.29
2024-02-10T02:47:05.868Z,9.30
2024-02-10T02:49:34.966Z,9.29
2024-02-10T02:52:02.094Z,9.27
2024-02-10T02:54:35.911Z,9.25
2024-02-10T02:57:02.507Z,9.23
2024-02-10T02:59:29.200Z,9.22
2024-02-10T03:01:56.311Z,9.21
2024-02-10T03:04:23.784Z,9.24
2024-02-10T03:06:52.066Z,9.23
2024-02-10T03:09:19.626Z,9.22
2024-02-10T03:11:46.387Z,9.22
2024-02-10T03:14:16.371Z,9.23
2024-02-10T03:16:46.867Z,9.20
2024-02-10T03:19:13.697Z,9.18
2024-02-10T03:21:40.419Z,9.14
2024-02-10T03:24:07.338Z,9.10
2024-02-10T03:29:07.334Z,8.98
2024-02-10T03:31:34.482Z,8.94
2024-02-10T03:34:02.902Z,8.89
2024-02-10T03:36:32.579Z,8.85
2024-02-10T03:39:04.981Z,8.79
2024-02-10T03:41:31.741Z,8.73
2024-02-10T03:43:58.350Z,8.69
2024-02-10T03:46:25.227Z,8.63
2024-02-10T03:48:54.071Z,8.59
2024-02-10T03:51:20.879Z,8.56
2024-02-10T03:53:47.541Z,8.52
2024-02-10T03:56:14.135Z,8.52
2024-02-10T03:58:42.825Z,8.52
2024-02-10T04:01:17.404Z,8.52
2024-02-10T04:03:47.209Z,8.55
2024-02-10T04:06:17.184Z,8.58
2024-02-10T04:08:48.441Z,8.51
2024-02-10T04:11:18.924Z,8.59
2024-02-10T04:13:48.987Z,8.61
2024-02-10T04:16:16.960Z,8.61
2024-02-10T04:18:44.249Z,8.61
2024-02-10T04:21:11.344Z,8.60
2024-02-10T04:23:41.674Z,8.57
2024-02-10T04:26:08.731Z,8.55
2024-02-10T04:28:35.741Z,8.53
2024-02-10T04:31:03.175Z,8.52
2024-02-10T04:33:32.400Z,8.52
2024-02-10T04:35:59.189Z,8.51
2024-02-10T04:38:26.022Z,8.49
2024-02-10T04:40:53.158Z,8.47
2024-02-10T04:43:21.158Z,8.46
2024-02-10T04:45:50.446Z,8.45
2024-02-10T04:48:21.472Z,8.43
2024-02-10T04:50:48.824Z,8.43
2024-02-10T04:53:17.221Z,8.42
2024-02-10T04:55:45.960Z,8.42
2024-02-10T04:58:14.478Z,8.40
2024-02-10T05:00:42.200Z,8.40
2024-02-10T05:03:09.055Z,8.39
2024-02-10T05:05:35.859Z,8.37
2024-02-10T05:08:02.610Z,8.37
2024-02-10T05:10:29.407Z,8.36
2024-02-10T05:12:57.588Z,8.35
2024-02-10T05:15:26.018Z,8.30
2024-02-10T05:17:55.324Z,8.27
2024-02-10T05:23:00.207Z,8.20
2024-02-10T05:25:36.711Z,8.17
2024-02-10T05:28:04.140Z,8.14
2024-02-10T05:33:03.032Z,8.10
2024-02-10T05:35:31.509Z,8.07
2024-02-10T05:38:00.918Z,8.05
2024-02-10T05:40:29.151Z,8.05
2024-02-10T05:43:00.848Z,8.03
2024-02-10T05:45:29.294Z,8.02
2024-02-10T05:47:56.057Z,8.01
2024-02-10T05:50:24.981Z,8.00
2024-02-10T05:52:53.752Z,7.97
2024-02-10T05:55:27.201Z,7.96
2024-02-10T05:57:57.210Z,7.92
2024-02-10T06:00:24.466Z,7.89
2024-02-10T06:02:52.546Z,7.87
2024-02-10T06:05:19.864Z,7.85
2024-02-10T06:07:49.742Z,7.82
2024-02-10T06:10:17.674Z,7.80
2024-02-10T06:12:50.270Z,7.76
2024-02-10T06:15:19.051Z,7.74
2024-02-10T06:17:54.085Z,7.70
2024-02-10T06:20:24.581Z,7.68
2024-02-10T06:22:54.282Z,7.64
2024-02-10T06:25:30.223Z,7.60
2024-02-10T06:28:00.236Z,7.57
2024-02-10T06:30:32.073Z,7.44
2024-02-10T06:32:59.621Z,7.45
2024-02-10T06:35:27.789Z,7.43
2024-02-10T06:37:56.352Z,7.41
2024-02-10T06:40:24.111Z,7.37
2024-02-10T06:42:51.829Z,7.33
2024-02-10T06:45:23.458Z,7.30
2024-02-10T06:47:51.555Z,7.27
2024-02-10T06:50:25.928Z,7.23
2024-02-10T06:52:54.513Z,7.20
2024-02-10T06:55:21.625Z,7.16
2024-02-10T06:57:54.016Z,7.13
2024-02-10T07:00:21.145Z,7.09
2024-02-10T07:02:49.516Z,7.03
2024-02-10T07:05:18.152Z,7.00
2024-02-10T07:07:48.194Z,6.96
2024-02-10T07:10:20.458Z,6.89
2024-02-10T07:12:49.195Z,6.84
2024-02-10T07:15:20.940Z,6.80
2024-02-10T07:17:51.647Z,6.78
2024-02-10T07:23:01.482Z,6.75
2024-02-10T07:25:30.475Z,6.73
2024-02-10T07:28:03.205Z,6.73
2024-02-10T07:30:32.962Z,6.72
2024-02-10T07:33:17.968Z,6.72
2024-02-10T07:35:50.752Z,6.72
2024-02-10T07:38:22.185Z,6.73
2024-02-10T07:40:49.099Z,6.74
2024-02-10T07:43:17.320Z,6.75
2024-02-10T07:45:45.819Z,6.77
2024-02-10T07:48:12.695Z,6.79
2024-02-10T07:50:42.315Z,6.80
2024-02-10T07:53:15.340Z,6.81
2024-02-10T07:55:44.298Z,6.84
2024-02-10T07:58:16.707Z,6.89
2024-02-10T08:00:44.042Z,6.91
2024-02-10T08:03:13.320Z,6.93
2024-02-10T08:05:43.664Z,6.93
2024-02-10T08:08:12.139Z,6.94
2024-02-10T08:10:40.436Z,7.00
2024-02-10T08:13:10.023Z,7.08
2024-02-10T08:15:37.042Z,7.17
2024-02-10T08:18:06.607Z,7.28
2024-02-10T08:20:33.670Z,7.36
2024-02-10T08:23:00.449Z,7.44
2024-02-10T08:25:29.596Z,7.58
2024-02-10T08:27:58.080Z,7.77
2024-02-10T08:30:25.792Z,7.96
2024-02-10T08:32:57.006Z,8.09
2024-02-10T08:35:26.042Z,8.21
2024-02-10T08:37:52.634Z,8.25
2024-02-10T08:40:19.402Z,8.27
2024-02-10T08:42:48.004Z,8.31
2024-02-10T08:45:16.512Z,8.38
2024-02-10T08:47:47.045Z,8.39
2024-02-10T08:50:13.974Z,8.36
2024-02-10T08:52:41.142Z,8.34
2024-02-10T08:55:08.652Z,8.31
2024-02-10T08:57:37.736Z,8.29
2024-02-10T09:00:06.830Z,8.23
2024-02-10T09:02:33.705Z,8.16
2024-02-10T09:05:00.788Z,8.10
2024-02-10T09:07:27.504Z,8.09
2024-02-10T09:09:54.260Z,8.08
2024-02-10T09:12:20.949Z,8.08
2024-02-10T09:14:48.609Z,8.04
2024-02-10T09:17:15.331Z,8.05
2024-02-10T09:19:43.149Z,8.06
2024-02-10T09:22:12.038Z,8.06
2024-02-10T09:24:41.309Z,8.07
2024-02-10T09:27:11.425Z,8.12
2024-02-10T09:29:38.974Z,8.21
2024-02-10T09:32:05.989Z,8.26
2024-02-10T09:34:32.823Z,8.31
2024-02-10T09:37:00.697Z,8.38
2024-02-10T09:39:27.725Z,8.43
2024-02-10T09:42:02.904Z,8.49
2024-02-10T09:44:31.093Z,8.53
2024-02-10T09:47:01.860Z,8.59
2024-02-10T09:49:31.100Z,8.65
2024-02-10T09:52:00.231Z,8.72
2024-02-10T09:54:27.290Z,8.81
2024-02-10T09:56:54.698Z,8.90
2024-02-10T09:59:26.140Z,8.96
2024-02-10T10:01:56.298Z,9.02
2024-02-10T10:04:23.528Z,9.05
2024-02-10T10:06:51.069Z,9.04
2024-02-10T10:09:20.295Z,9.02
2024-02-10T10:11:51.134Z,9.04
2024-02-10T10:14:18.682Z,9.06
2024-02-10T10:17:03.902Z,9.08
2024-02-10T10:19:31.354Z,9.10
2024-02-10T10:21:59.072Z,9.07
2024-02-10T10:24:27.155Z,9.03
2024-02-10T10:26:55.488Z,8.97
2024-02-10T10:29:23.291Z,8.97
2024-02-10T10:31:51.639Z,9.08
2024-02-10T10:34:21.101Z,9.15
2024-02-10T10:36:50.625Z,9.16
2024-02-10T10:39:19.069Z,9.21
2024-02-10T10:41:46.883Z,9.24
2024-02-10T10:44:16.041Z,9.25
2024-02-10T10:46:43.826Z,9.26
2024-02-10T10:49:13.416Z,9.24
2024-02-10T10:51:53.213Z,9.25
2024-02-10T10:54:20.747Z,9.28
2024-02-10T10:56:49.534Z,9.33
2024-02-10T10:59:18.250Z,9.38
2024-02-10T11:01:47.090Z,9.46
2024-02-10T11:04:15.801Z,9.55
2024-02-10T11:06:45.719Z,9.61
2024-02-10T11:09:21.857Z,9.64
2024-02-10T11:11:48.553Z,9.66
2024-02-10T11:14:15.331Z,9.67
2024-02-10T11:16:43.867Z,9.67
2024-02-10T11:19:16.821Z,9.68
2024-02-10T11:21:44.590Z,9.69
2024-02-10T11:24:17.904Z,9.68
2024-02-10T11:26:45.986Z,9.69
2024-02-10T11:29:20.196Z,9.69
2024-02-10T11:31:47.475Z,9.69
2024-02-10T11:34:18.293Z,9.68
2024-02-10T11:36:57.203Z,9.69
2024-02-10T11:39:26.253Z,9.70
2024-02-10T11:41:57.578Z,9.65
2024-02-10T11:44:27.648Z,9.65
2024-02-10T11:46:54.994Z,9.60
2024-02-10T11:49:23.453Z,9.50
2024-02-10T11:51:54.481Z,9.38
2024-02-10T11:54:21.235Z,9.36
2024-02-10T11:56:51.497Z,9.30
2024-02-10T11:59:18.495Z,9.22
2024-02-10T12:01:45.413Z,9.18
2024-02-10T12:04:18.852Z,9.14
2024-02-10T12:06:47.602Z,9.12
2024-02-10T12:09:14.237Z,9.14
2024-02-10T12:11:44.126Z,9.15
2024-02-10T12:14:15.797Z,9.20
2024-02-10T12:16:46.577Z,9.24
2024-02-10T12:19:15.004Z,9.25
2024-02-10T12:21:43.084Z,9.25
2024-02-10T12:24:12.574Z,9.24
2024-02-10T12:26:39.157Z,9.25
2024-02-10T12:29:12.959Z,9.25
2024-02-10T12:31:41.476Z,9.25
2024-02-10T12:34:15.773Z,9.28
2024-02-10T12:36:42.777Z,9.34
2024-02-10T12:39:11.672Z,9.38
2024-02-10T12:41:39.322Z,9.46
2024-02-10T12:44:07.031Z,9.58
2024-02-10T12:46:33.825Z,9.64
2024-02-10T12:49:01.819Z,9.68
2024-02-10T12:51:33.405Z,9.64
2024-02-10T12:54:00.887Z,9.60
2024-02-10T12:56:28.445Z,9.58
2024-02-10T12:58:58.154Z,9.59
2024-02-10T13:01:25.764Z,9.59
2024-02-10T13:03:52.907Z,9.60
2024-02-10T13:06:20.197Z,9.61
2024-02-10T13:08:47.256Z,9.62
2024-02-10T13:11:14.154Z,9.67
2024-02-10T13:13:46.007Z,9.73
2024-02-10T13:16:12.854Z,9.74
2024-02-10T13:18:45.640Z,9.76
2024-02-10T13:21:18.029Z,9.75
2024-02-10T13:23:45.427Z,9.72
2024-02-10T13:26:13.407Z,9.73
2024-02-10T13:28:43.100Z,9.74
2024-02-10T13:31:10.951Z,9.78
2024-02-10T13:33:41.280Z,9.80
2024-02-10T13:36:09.840Z,9.79
2024-02-10T13:38:56.849Z,9.77
2024-02-10T13:41:43.400Z,9.76
2024-02-10T13:44:29.945Z,9.80
2024-02-10T13:47:16.528Z,9.82
2024-02-10T13:50:05.103Z,9.81
2024-02-10T13:52:53.885Z,9.76
2024-02-10T13:55:40.442Z,9.69
2024-02-10T14:00:47.357Z,9.64
2024-02-10T14:03:15.035Z,9.65
2024-02-10T14:05:56.498Z,9.71
2024-02-10T14:08:42.536Z,9.74
2024-02-10T14:11:14.496Z,9.69
2024-02-10T14:13:46.920Z,9.70
2024-02-10T14:16:17.061Z,9.77
2024-02-10T14:18:45.145Z,9.73
2024-02-10T14:21:18.913Z,9.73
2024-02-10T14:23:46.952Z,9.71
2024-02-10T14:26:16.613Z,9.76
2024-02-10T14:28:55.215Z,9.75
2024-02-10T14:31:24.062Z,9.71
2024-02-10T14:33:54.602Z,9.74
2024-02-10T14:36:41.893Z,9.80
2024-02-10T14:39:14.943Z,9.85
2024-02-10T14:41:44.594Z,9.80
2024-02-10T14:44:12.001Z,9.85
2024-02-10T14:46:41.296Z,9.87
2024-02-10T14:49:08.155Z,9.86
2024-02-10T14:51:34.926Z,9.88
2024-02-10T14:54:01.608Z,9.90
2024-02-10T14:56:32.415Z,9.92
2024-02-10T14:59:00.507Z,9.94
2024-02-10T15:01:32.205Z,9.95
2024-02-10T15:03:59.130Z,9.94
2024-02-10T15:06:25.989Z,9.94
2024-02-10T15:08:55.398Z,9.95
2024-02-10T15:11:23.822Z,9.98
2024-02-10T15:13:50.579Z,9.99
2024-02-10T15:16:21.257Z,10.01
2024-02-10T15:18:52.389Z,10.01
2024-02-10T15:21:20.863Z,10.00
2024-02-10T15:23:49.610Z,9.99
2024-02-10T15:26:18.494Z,10.00
2024-02-10T15:28:49.218Z,10.03
2024-02-10T15:31:20.574Z,10.06
2024-02-10T15:33:48.273Z,10.07
2024-02-10T15:36:35.003Z,10.09
2024-02-10T15:39:02.492Z,10.10
2024-02-10T15:41:33.981Z,10.11
2024-02-10T15:44:08.583Z,10.10
2024-02-10T15:46:37.204Z,10.11
2024-02-10T15:49:04.342Z,10.12
2024-02-10T15:51:34.361Z,10.12
2024-02-10T15:54:01.070Z,10.03
2024-02-10T15:56:27.704Z,10.11
2024-02-10T15:58:55.723Z,10.11
2024-02-10T16:01:23.618Z,10.11
2024-02-10T16:03:50.798Z,10.09
2024-02-10T16:06:17.763Z,10.07
2024-02-10T16:08:46.330Z,10.05
2024-02-10T16:11:15.718Z,10.01
2024-02-10T16:13:45.826Z,10.00
2024-02-10T16:16:17.979Z,9.98
2024-02-10T16:18:47.766Z,9.97
2024-02-10T16:21:29.237Z,9.96
2024-02-10T16:23:57.840Z,9.93
2024-02-10T16:26:24.873Z,9.92
2024-02-10T16:28:52.908Z,9.92
2024-02-10T16:31:22.172Z,9.90
2024-02-10T16:33:50.737Z,9.87
2024-02-10T16:36:17.510Z,9.86
2024-02-10T16:38:44.263Z,9.86
2024-02-10T16:41:14.118Z,9.85
2024-02-10T16:43:42.353Z,9.83
2024-02-10T16:46:09.060Z,9.81
2024-02-10T16:48:37.211Z,9.79
2024-02-10T16:51:04.848Z,9.80
2024-02-10T16:53:31.565Z,9.80
2024-02-10T16:56:02.214Z,9.78
2024-02-10T16:58:30.877Z,9.79
2024-02-10T17:00:59.019Z,9.81
2024-02-10T17:03:27.965Z,9.80
2024-02-10T17:05:59.237Z,9.80
2024-02-10T17:08:29.900Z,9.80
2024-02-10T17:10:57.105Z,9.75
2024-02-10T17:13:32.041Z,9.72
2024-02-10T17:15:58.758Z,9.67
2024-02-10T17:18:25.589Z,9.65
2024-02-10T17:20:58.427Z,9.60
2024-02-10T17:23:25.870Z,9.58
2024-02-10T17:25:55.991Z,9.56
2024-02-10T17:28:31.669Z,9.40
2024-02-10T17:30:58.650Z,9.44
2024-02-10T17:33:25.609Z,9.43
2024-02-10T17:35:54.205Z,9.41
2024-02-10T17:38:22.430Z,9.39
2024-02-10T17:40:49.610Z,9.36
2024-02-10T17:43:22.362Z,9.34
2024-02-10T17:45:52.276Z,9.33
2024-02-10T17:48:22.482Z,9.29
2024-02-10T17:50:51.045Z,9.28
2024-02-10T17:53:23.968Z,9.25
2024-02-10T17:55:55.556Z,9.23
2024-02-10T17:58:24.179Z,9.21
2024-02-10T18:00:52.900Z,9.20
2024-02-10T18:03:22.009Z,9.16
2024-02-10T18:05:50.383Z,9.14
2024-02-10T18:08:20.194Z,9.10
2024-02-10T18:10:48.521Z,9.05
2024-02-10T18:13:18.082Z,9.01
2024-02-10T18:15:45.157Z,8.98
2024-02-10T18:18:12.409Z,8.95
2024-02-10T18:20:39.613Z,8.94
2024-02-10T18:23:08.116Z,8.94
2024-02-10T18:25:36.426Z,8.93
2024-02-10T18:28:05.296Z,8.92
2024-02-10T18:30:32.092Z,8.92
2024-02-10T18:32:59.268Z,8.91
2024-02-10T18:35:27.565Z,8.90
2024-02-10T18:37:58.433Z,8.90
2024-02-10T18:40:28.053Z,8.87
2024-02-10T18:42:56.105Z,8.86
2024-02-10T18:45:25.185Z,8.85
2024-02-10T18:47:52.710Z,8.83
2024-02-10T18:50:20.209Z,8.80
2024-02-10T18:52:48.005Z,8.79
2024-02-10T18:55:16.017Z,8.79
2024-02-10T18:57:43.372Z,8.77
2024-02-10T19:00:14.793Z,8.76
2024-02-10T19:02:42.052Z,8.74
2024-02-10T19:05:09.282Z,8.73
2024-02-10T19:07:38.192Z,8.72
2024-02-10T19:10:11.854Z,8.69
2024-02-10T19:12:40.060Z,8.71
2024-02-10T19:15:10.161Z,8.68
2024-02-10T19:17:39.755Z,8.67
2024-02-10T19:20:12.312Z,8.65
2024-02-10T19:22:40.209Z,8.62
2024-02-10T19:25:10.457Z,8.61
2024-02-10T19:27:39.868Z,8.60
2024-02-10T19:30:09.991Z,8.59
2024-02-10T19:32:41.546Z,8.58
2024-02-10T19:35:17.592Z,8.58
2024-02-10T19:37:47.054Z,8.56
2024-02-10T19:40:16.092Z,8.56
2024-02-10T19:42:44.324Z,8.55
2024-02-10T19:45:14.153Z,8.55
2024-02-10T19:47:42.886Z,8.53
2024-02-10T19:50:13.173Z,8.54
2024-02-10T19:52:42.577Z,8.48
2024-02-10T19:55:11.126Z,8.45
2024-02-10T19:57:41.587Z,8.39
2024-02-10T20:00:14.218Z,8.35
2024-02-10T20:02:43.828Z,8.31
2024-02-10T20:05:11.379Z,8.28
2024-02-10T20:07:39.253Z,8.25
2024-02-10T20:10:06.527Z,8.23
2024-02-10T20:12:33.194Z,8.19
2024-02-10T20:15:01.066Z,8.18
2024-02-10T20:17:32.088Z,8.19
2024-02-10T20:20:07.997Z,8.19
2024-02-10T20:22:35.211Z,8.19
2024-02-10T20:25:04.525Z,8.19
2024-02-10T20:27:32.538Z,8.20
2024-02-10T20:30:00.356Z,8.21
2024-02-10T20:32:27.285Z,8.20
2024-02-10T20:34:53.956Z,8.21
2024-02-10T20:37:20.618Z,8.20
2024-02-10T20:39:49.795Z,8.19
2024-02-10T20:42:18.380Z,8.19
2024-02-10T20:44:48.297Z,8.18
2024-02-10T20:47:15.455Z,8.19
2024-02-10T20:49:42.251Z,8.20
2024-02-10T20:52:09.007Z,8.20
2024-02-10T20:54:36.692Z,8.21
2024-02-10T20:57:03.606Z,8.21
2024-02-10T20:59:30.327Z,8.21
2024-02-10T21:01:57.612Z,8.20
2024-02-10T21:04:24.498Z,8.19
2024-02-10T21:06:54.087Z,8.18
2024-02-10T21:09:26.724Z,8.19
2024-02-10T21:11:53.411Z,8.18
2024-02-10T21:14:20.411Z,8.19
2024-02-10T21:16:48.685Z,8.18
2024-02-10T21:19:15.742Z,8.18
2024-02-10T21:21:42.915Z,8.19
2024-02-10T21:24:10.049Z,8.19
2024-02-10T21:26:37.834Z,8.19
2024-02-10T21:29:09.154Z,8.18
2024-02-10T21:31:37.127Z,8.20
2024-02-10T21:34:05.899Z,8.19
2024-02-10T21:36:36.292Z,8.17
2024-02-10T21:39:22.286Z,8.07
2024-02-10T21:41:49.026Z,8.12
2024-02-10T21:44:16.193Z,8.14
2024-02-10T21:46:43.264Z,8.15
2024-02-10T21:49:10.008Z,8.15
2024-02-10T21:51:38.155Z,8.15
2024-02-10T21:54:07.166Z,8.15
2024-02-10T21:56:41.696Z,8.16
2024-02-10T21:59:10.494Z,8.15
2024-02-10T22:01:37.236Z,8.14
2024-02-10T22:04:05.340Z,8.15
2024-02-10T22:06:32.101Z,8.15
2024-02-10T22:08:59.330Z,8.15
2024-02-10T22:11:26.400Z,8.13
2024-02-10T22:13:53.120Z,8.12
2024-02-10T22:16:19.915Z,8.12
2024-02-10T22:18:49.903Z,8.10
2024-02-10T22:21:17.050Z,8.10
2024-02-10T22:23:43.656Z,8.08
2024-02-10T22:26:10.360Z,8.09
2024-02-10T22:28:41.498Z,8.08
2024-02-10T22:31:09.929Z,8.07
2024-02-10T22:33:37.322Z,8.05
2024-02-10T22:36:11.349Z,8.06
2024-02-10T22:38:41.272Z,8.05
2024-02-10T22:41:08.344Z,8.04
2024-02-10T22:43:35.084Z,8.02
2024-02-10T22:46:06.693Z,8.01
2024-02-10T22:48:35.547Z,8.02
2024-02-10T22:51:04.358Z,8.02
2024-02-10T22:53:34.190Z,8.01
2024-02-10T22:56:00.888Z,7.98
2024-02-10T22:58:27.607Z,7.98
2024-02-10T23:00:54.605Z,7.96
2024-02-10T23:03:21.493Z,7.96
2024-02-10T23:05:51.592Z,7.95
2024-02-10T23:08:21.047Z,7.94
2024-02-10T23:10:48.593Z,7.93
2024-02-10T23:13:20.909Z,7.92
2024-02-10T23:15:52.472Z,7.92
2024-02-10T23:18:24.913Z,7.91
2024-02-10T23:20:52.758Z,7.92
2024-02-10T23:23:22.096Z,7.93
2024-02-10T23:25:50.526Z,7.94
2024-02-10T23:28:17.881Z,7.93
2024-02-10T23:30:52.504Z,7.93
2024-02-10T23:35:57.599Z,7.94
2024-02-10T23:38:28.003Z,7.94
2024-02-10T23:40:56.645Z,7.94
2024-02-10T23:43:24.847Z,7.97
2024-02-10T23:45:51.970Z,8.00
2024-02-10T23:48:20.899Z,8.00
2024-02-10T23:50:48.239Z,8.01
2024-02-10T23:53:15.474Z,8.03
2024-02-10T23:55:44.436Z,8.05
2024-02-10T23:58:12.880Z,8.04
